Time;durP1;ratioP1;P1;durP2;ratioP2;P2;SDS_P1;SDS_P2;PMS_P1;PMS_P2;Temp;Humidity;BMP_temperature;BMP_pressure;BME280_temperature;BME280_humidity;BME280_pressure;Samples;Min_cycle;Max_cycle;Signal;HPM_P1;HPM_P2
2023/07/03 00:00:20;;;;;;;11.75;2.78;;;;;;;;;;5070889;28;20435;-75
2023/07/03 00:02:50;;;;;;;11.55;2.90;;;;;;;;;;5066377;28;20032;-75
2023/07/03 00:05:17;;;;;;;8.77;2.50;;;;;;;;;;5065958;28;20017;-75
2023/07/03 00:07:42;;;;;;;6.93;2.33;;;;;;;;;;5062383;28;20492;-75
2023/07/03 00:10:08;;;;;;;12.10;2.75;;;;;;;;;;5067693;28;20138;-75
2023/07/03 00:12:34;;;;;;;10.27;2.60;;;;;;;;;;5066399;28;20028;-75
2023/07/03 00:15:00;;;;;;;9.75;2.58;;;;;;;;;;5066859;28;20028;-75
2023/07/03 00:17:25;;;;;;;13.45;2.95;;;;;;;;;;5065404;28;20032;-86
2023/07/03 00:19:51;;;;;;;9.63;2.70;;;;;;;;;;5067361;28;20060;-86
2023/07/03 00:22:16;;;;;;;9.27;2.28;;;;;;;;;;5044433;28;20123;-86
2023/07/03 00:24:41;;;;;;;12.32;2.63;;;;;;;;;;5071633;28;20477;-85
2023/07/03 00:27:07;;;;;;;8.88;2.08;;;;;;;;;;5072816;28;20370;-86
2023/07/03 00:29:33;;;;;;;10.00;2.22;;;;;;;;;;5070883;28;20047;-85
2023/07/03 00:32:00;;;;;;;12.70;2.55;;;;;;;;;;5067277;28;20500;-85
2023/07/03 00:34:26;;;;;;;8.85;2.55;;;;;;;;;;5072717;28;20028;-84
2023/07/03 00:36:51;;;;;;;9.85;2.40;;;;;;;;;;5073004;28;20020;-82
2023/07/03 00:39:17;;;;;;;10.45;2.80;;;;;;;;;;5071462;28;20047;-81
2023/07/03 00:41:43;;;;;;;8.57;2.20;;;;;;;;;;5072166;28;20056;-85
2023/07/03 00:44:11;;;;;;;9.57;2.60;;;;;;;;;;5068588;28;20036;-84
2023/07/03 00:46:39;;;;;;;7.72;2.15;;;;;;;;;;5072934;28;20031;-84
2023/07/03 00:49:04;;;;;;;9.80;2.75;;;;;;;;;;5071405;28;20020;-85
2023/07/03 00:51:30;;;;;;;8.82;2.75;;;;;;;;;;5071039;28;20043;-86
2023/07/03 00:53:56;;;;;;;11.85;2.75;;;;;;;;;;5064459;28;20052;-84
2023/07/03 00:56:21;;;;;;;8.25;2.70;;;;;;;;;;5065159;28;20033;-84
2023/07/03 00:58:47;;;;;;;11.30;2.42;;;;;;;;;;5071555;28;20059;-85
2023/07/03 01:01:15;;;;;;;9.73;2.58;;;;;;;;;;5070430;28;20021;-85
2023/07/03 01:03:44;;;;;;;9.93;2.45;;;;;;;;;;5065510;28;20024;-85
2023/07/03 01:06:19;;;;;;;9.32;2.28;;;;;;;;;;5075972;28;20070;-84
2023/07/03 01:08:51;;;;;;;9.93;3.22;;;;;;;;;;5067203;28;20553;-85
2023/07/03 01:11:19;;;;;;;10.13;2.90;;;;;;;;;;5064368;28;20422;-84
2023/07/03 01:13:46;;;;;;;9.02;2.80;;;;;;;;;;5067446;28;20115;-84
2023/07/03 01:16:12;;;;;;;8.82;2.30;;;;;;;;;;5070130;28;20464;-85
2023/07/03 01:18:38;;;;;;;7.43;2.60;;;;;;;;;;5073603;28;20029;-86
2023/07/03 01:21:12;;;;;;;9.15;2.30;;;;;;;;;;5070784;28;20016;-84
2023/07/03 01:24:05;;;;;;;10.68;2.90;;;;;;;;;;5068762;28;20024;-84
2023/07/03 01:26:31;;;;;;;9.15;2.70;;;;;;;;;;5066169;28;20032;-84
2023/07/03 01:28:59;;;;;;;9.60;2.83;;;;;;;;;;5071818;28;20030;-81
2023/07/03 01:31:28;;;;;;;8.70;2.60;;;;;;;;;;5064257;28;20534;-84
2023/07/03 01:33:56;;;;;;;11.30;2.70;;;;;;;;;;5070103;28;20027;-82
2023/07/03 01:36:22;;;;;;;8.27;2.65;;;;;;;;;;5064004;28;20102;-84
2023/07/03 01:38:49;;;;;;;7.97;2.03;;;;;;;;;;5070870;28;20504;-86
2023/07/03 01:41:16;;;;;;;10.07;2.65;;;;;;;;;;5065502;28;20025;-85
2023/07/03 01:43:44;;;;;;;11.35;2.70;;;;;;;;;;5063746;28;20031;-85
2023/07/03 01:46:10;;;;;;;8.55;2.63;;;;;;;;;;5070731;28;20044;-85
2023/07/03 01:48:36;;;;;;;10.95;2.97;;;;;;;;;;5070829;28;20101;-85
2023/07/03 01:51:03;;;;;;;10.80;2.38;;;;;;;;;;5078639;28;20034;-86
2023/07/03 01:53:42;;;;;;;9.15;2.40;;;;;;;;;;5064826;28;20028;-79
2023/07/03 01:56:24;;;;;;;8.05;2.50;;;;;;;;;;5071718;28;20039;-84
2023/07/03 01:58:56;;;;;;;12.48;3.20;;;;;;;;;;5073123;28;20043;-85
2023/07/03 02:01:31;;;;;;;9.63;2.50;;;;;;;;;;5071556;28;20118;-85
2023/07/03 02:04:00;;;;;;;8.60;2.85;;;;;;;;;;5068858;28;20027;-85
2023/07/03 02:06:33;;;;;;;11.50;3.60;;;;;;;;;;5089148;28;20059;-85
2023/07/03 02:09:00;;;;;;;11.35;3.00;;;;;;;;;;5068445;28;20476;-85
2023/07/03 02:11:28;;;;;;;13.65;3.42;;;;;;;;;;5086262;28;20026;-83
2023/07/03 02:13:54;;;;;;;10.63;2.45;;;;;;;;;;5085961;28;20028;-85
2023/07/03 02:16:19;;;;;;;9.57;2.45;;;;;;;;;;5071352;28;20097;-85
2023/07/03 02:18:46;;;;;;;10.75;2.53;;;;;;;;;;5090417;28;20035;-86
2023/07/03 02:21:13;;;;;;;9.93;2.38;;;;;;;;;;5083611;28;20016;-85
2023/07/03 02:23:38;;;;;;;8.30;2.38;;;;;;;;;;5071279;28;20442;-84
2023/07/03 02:26:04;;;;;;;9.07;2.78;;;;;;;;;;5085400;28;20032;-84
2023/07/03 02:28:29;;;;;;;11.98;3.10;;;;;;;;;;5084113;28;20055;-78
2023/07/03 02:30:55;;;;;;;11.02;2.60;;;;;;;;;;5090971;28;20039;-85
2023/07/03 02:33:20;;;;;;;11.30;3.08;;;;;;;;;;5060142;28;20384;-83
2023/07/03 02:35:45;;;;;;;12.82;3.05;;;;;;;;;;5073663;28;20035;-85
2023/07/03 02:38:11;;;;;;;14.75;3.15;;;;;;;;;;5071629;28;20028;-79
2023/07/03 02:40:38;;;;;;;13.13;3.03;;;;;;;;;;5087674;28;20193;-84
2023/07/03 02:43:04;;;;;;;14.32;3.35;;;;;;;;;;5085002;28;20388;-85
2023/07/03 02:45:40;;;;;;;12.98;2.95;;;;;;;;;;5081742;28;20082;-79
2023/07/03 02:48:07;;;;;;;12.30;3.03;;;;;;;;;;5068247;28;20020;-84
2023/07/03 02:50:32;;;;;;;16.92;3.45;;;;;;;;;;5071111;28;20032;-86
2023/07/03 02:52:58;;;;;;;13.23;3.67;;;;;;;;;;5092384;28;20036;-87
2023/07/03 02:55:24;;;;;;;15.88;3.47;;;;;;;;;;5090047;28;20034;-86
2023/07/03 02:57:49;;;;;;;14.13;3.53;;;;;;;;;;5091427;28;20471;-87
2023/07/03 03:00:15;;;;;;;18.77;3.47;;;;;;;;;;5086997;28;20031;-83
2023/07/03 03:02:43;;;;;;;15.13;3.50;;;;;;;;;;5090477;28;20032;-85
2023/07/03 03:05:09;;;;;;;16.38;3.30;;;;;;;;;;5078653;28;20521;-84
2023/07/03 03:07:35;;;;;;;14.40;3.40;;;;;;;;;;5070089;28;20434;-79
2023/07/03 03:10:00;;;;;;;14.65;3.40;;;;;;;;;;5085828;28;20021;-86
2023/07/03 03:12:26;;;;;;;12.45;3.53;;;;;;;;;;5072505;28;20039;-84
2023/07/03 03:14:51;;;;;;;15.55;2.92;;;;;;;;;;5072158;28;20028;-84
2023/07/03 03:17:16;;;;;;;14.13;3.15;;;;;;;;;;5070259;28;20028;-85
2023/07/03 03:19:42;;;;;;;12.07;3.50;;;;;;;;;;5072422;28;20055;-85
2023/07/03 03:22:07;;;;;;;14.07;3.47;;;;;;;;;;5090219;28;20361;-77
2023/07/03 03:24:32;;;;;;;11.65;3.30;;;;;;;;;;5084567;28;20098;-84
2023/07/03 03:27:05;;;;;;;10.90;3.00;;;;;;;;;;5084262;28;20035;-85
2023/07/03 03:29:30;;;;;;;14.52;3.22;;;;;;;;;;5070624;28;20083;-84
2023/07/03 03:31:56;;;;;;;13.40;3.35;;;;;;;;;;5089250;28;20067;-85
2023/07/03 03:34:21;;;;;;;12.15;2.80;;;;;;;;;;5066331;28;20020;-84
2023/07/03 03:36:46;;;;;;;10.82;3.00;;;;;;;;;;5087473;28;20547;-85
2023/07/03 03:39:12;;;;;;;11.95;2.97;;;;;;;;;;5083967;28;20039;-85
2023/07/03 03:41:38;;;;;;;13.38;3.55;;;;;;;;;;5085926;28;20020;-84
2023/07/03 03:44:03;;;;;;;11.70;2.88;;;;;;;;;;5069270;28;20055;-79
2023/07/03 03:46:29;;;;;;;12.48;2.88;;;;;;;;;;5090223;28;20074;-84
2023/07/03 03:48:54;;;;;;;12.95;3.13;;;;;;;;;;5085354;28;20064;-83
2023/07/03 03:51:19;;;;;;;15.18;3.03;;;;;;;;;;5071173;28;20590;-85
2023/07/03 03:53:45;;;;;;;16.17;3.53;;;;;;;;;;5081746;28;20071;-85
2023/07/03 03:56:10;;;;;;;14.00;2.95;;;;;;;;;;5068845;28;20051;-85
2023/07/03 03:58:36;;;;;;;14.32;3.00;;;;;;;;;;5067527;28;20048;-84
2023/07/03 04:01:01;;;;;;;14.40;3.35;;;;;;;;;;5075118;28;20128;-84
2023/07/03 04:03:26;;;;;;;13.52;3.85;;;;;;;;;;5085273;28;20028;-85
2023/07/03 04:05:52;;;;;;;12.82;3.78;;;;;;;;;;5072524;28;20423;-84
2023/07/03 04:08:18;;;;;;;12.98;2.90;;;;;;;;;;5088072;28;20340;-85
2023/07/03 04:10:43;;;;;;;11.98;3.50;;;;;;;;;;5087280;28;20032;-85
2023/07/03 04:13:10;;;;;;;13.05;3.22;;;;;;;;;;5074697;28;20124;-80
2023/07/03 04:15:37;;;;;;;11.30;3.35;;;;;;;;;;5065463;28;20036;-84
2023/07/03 04:18:03;;;;;;;17.38;3.60;;;;;;;;;;5095882;28;20032;-85
2023/07/03 04:20:28;;;;;;;14.05;3.22;;;;;;;;;;5073794;28;20475;-84
2023/07/03 04:22:54;;;;;;;15.02;3.53;;;;;;;;;;5087612;28;20456;-78
2023/07/03 04:25:19;;;;;;;13.13;3.10;;;;;;;;;;5090036;28;20069;-84
2023/07/03 04:27:44;;;;;;;12.70;3.75;;;;;;;;;;5069494;28;20036;-84
2023/07/03 04:30:11;;;;;;;13.10;3.10;;;;;;;;;;5069603;28;20028;-85
2023/07/03 04:32:36;;;;;;;13.07;3.22;;;;;;;;;;5082915;28;20046;-84
2023/07/03 04:35:04;;;;;;;15.48;3.40;;;;;;;;;;5064471;28;20024;-77
2023/07/03 04:37:29;;;;;;;10.45;3.08;;;;;;;;;;5070969;28;20396;-85
2023/07/03 04:39:56;;;;;;;15.95;3.33;;;;;;;;;;5088836;28;20028;-84
2023/07/03 04:42:22;;;;;;;14.88;3.50;;;;;;;;;;5065709;28;20029;-84
2023/07/03 04:44:51;;;;;;;16.52;3.20;;;;;;;;;;5090833;28;20028;-86
2023/07/03 04:47:16;;;;;;;10.50;2.97;;;;;;;;;;5077456;28;20028;-78
2023/07/03 04:49:43;;;;;;;14.13;3.80;;;;;;;;;;5069265;28;20575;-86
2023/07/03 04:52:09;;;;;;;11.75;3.40;;;;;;;;;;5072020;28;20028;-85
2023/07/03 04:54:35;;;;;;;12.95;3.60;;;;;;;;;;5083195;28;20027;-84
2023/07/03 04:57:00;;;;;;;17.38;3.60;;;;;;;;;;5069893;28;20392;-85
2023/07/03 04:59:25;;;;;;;15.30;3.75;;;;;;;;;;5085589;28;20025;-84
2023/07/03 05:01:51;;;;;;;11.90;3.67;;;;;;;;;;5086289;28;20020;-85
2023/07/03 05:04:17;;;;;;;14.77;3.28;;;;;;;;;;5071743;28;20107;-85
2023/07/03 05:06:42;;;;;;;14.23;3.53;;;;;;;;;;5072434;28;20028;-83
2023/07/03 05:09:08;;;;;;;13.23;3.28;;;;;;;;;;5076906;28;20050;-80
2023/07/03 05:11:34;;;;;;;16.20;4.30;;;;;;;;;;5091634;28;20035;-82
2023/07/03 05:14:00;;;;;;;14.05;3.58;;;;;;;;;;5074811;28;20384;-85
2023/07/03 05:16:25;;;;;;;13.48;3.55;;;;;;;;;;5093937;28;20035;-86
2023/07/03 05:18:51;;;;;;;13.82;3.10;;;;;;;;;;5093571;28;20110;-84
2023/07/03 05:21:16;;;;;;;12.18;3.22;;;;;;;;;;5093025;28;20032;-84
2023/07/03 05:23:42;;;;;;;13.05;3.70;;;;;;;;;;5084467;28;20031;-85
2023/07/03 05:26:07;;;;;;;12.50;3.17;;;;;;;;;;5064576;28;20028;-85
2023/07/03 05:28:33;;;;;;;14.95;3.67;;;;;;;;;;5072116;28;20039;-83
2023/07/03 05:30:59;;;;;;;14.45;3.70;;;;;;;;;;5066286;28;20434;-85
2023/07/03 05:33:26;;;;;;;12.30;3.70;;;;;;;;;;5065678;28;20091;-85
2023/07/03 05:35:52;;;;;;;18.33;3.78;;;;;;;;;;5091426;28;20062;-84
2023/07/03 05:38:18;;;;;;;15.60;3.55;;;;;;;;;;5092806;28;20094;-85
2023/07/03 05:40:44;;;;;;;14.60;3.50;;;;;;;;;;5070844;28;20081;-85
2023/07/03 05:43:10;;;;;;;12.30;3.30;;;;;;;;;;5073782;28;20051;-85
2023/07/03 05:45:36;;;;;;;12.07;3.20;;;;;;;;;;5074878;28;20024;-82
2023/07/03 05:48:02;;;;;;;13.63;4.00;;;;;;;;;;5090169;28;20031;-85
2023/07/03 05:50:27;;;;;;;13.73;3.80;;;;;;;;;;5056071;28;20036;-85
2023/07/03 05:52:53;;;;;;;16.05;4.30;;;;;;;;;;5070950;28;20494;-85
2023/07/03 05:55:18;;;;;;;11.43;3.10;;;;;;;;;;5073359;28;20027;-87
2023/07/03 05:57:43;;;;;;;15.13;3.30;;;;;;;;;;5088829;28;20036;-86
2023/07/03 06:00:18;;;;;;;12.98;2.95;;;;;;;;;;5068229;28;20484;-84
2023/07/03 06:02:46;;;;;;;12.40;3.38;;;;;;;;;;5090748;28;20051;-86
2023/07/03 06:05:13;;;;;;;18.48;3.83;;;;;;;;;;5066892;28;20034;-85
2023/07/03 06:07:39;;;;;;;15.07;3.55;;;;;;;;;;5069554;28;20119;-86
2023/07/03 06:10:06;;;;;;;11.43;2.90;;;;;;;;;;5092294;28;20036;-86
2023/07/03 06:12:31;;;;;;;13.60;3.33;;;;;;;;;;5071782;28;20027;-86
2023/07/03 06:15:00;;;;;;;15.77;3.60;;;;;;;;;;5093744;28;20024;-85
2023/07/03 06:17:27;;;;;;;12.05;3.30;;;;;;;;;;5093659;28;20028;-86
2023/07/03 06:19:52;;;;;;;11.07;3.33;;;;;;;;;;5093565;28;20035;-86
2023/07/03 06:22:18;;;;;;;12.20;3.25;;;;;;;;;;5091660;28;20024;-86
2023/07/03 06:24:44;;;;;;;13.45;3.60;;;;;;;;;;5090943;28;20023;-85
2023/07/03 06:27:09;;;;;;;10.35;2.67;;;;;;;;;;5091430;28;20024;-85
2023/07/03 06:29:35;;;;;;;15.98;3.45;;;;;;;;;;5069911;28;20024;-83
2023/07/03 06:32:00;;;;;;;11.90;2.90;;;;;;;;;;5088622;28;20023;-85
2023/07/03 06:34:26;;;;;;;13.13;3.03;;;;;;;;;;5088740;28;20035;-85
2023/07/03 06:36:51;;;;;;;9.88;3.05;;;;;;;;;;5085935;28;20490;-84
2023/07/03 06:39:17;;;;;;;12.55;3.45;;;;;;;;;;5087385;28;20115;-86
2023/07/03 06:41:43;;;;;;;12.90;3.10;;;;;;;;;;5072002;28;20101;-87
2023/07/03 06:44:13;;;;;;;13.27;3.13;;;;;;;;;;5074976;28;20035;-84
2023/07/03 06:46:38;;;;;;;12.23;3.40;;;;;;;;;;5073778;28;20035;-86
2023/07/03 06:49:04;;;;;;;11.95;3.35;;;;;;;;;;5091068;28;20028;-85
2023/07/03 06:51:29;;;;;;;17.20;3.70;;;;;;;;;;5088545;28;20025;-85
2023/07/03 06:53:55;;;;;;;12.90;3.20;;;;;;;;;;5092008;28;20468;-85
2023/07/03 06:56:21;;;;;;;12.20;3.10;;;;;;;;;;5081732;28;20469;-85
2023/07/03 06:58:50;;;;;;;11.50;3.00;;;;;;;;;;5066979;28;20116;-87
2023/07/03 07:01:20;;;;;;;11.45;2.85;;;;;;;;;;5070906;28;20030;-87
2023/07/03 07:03:45;;;;;;;10.90;2.97;;;;;;;;;;5074041;28;20032;-87
2023/07/03 07:06:13;;;;;;;13.35;3.13;;;;;;;;;;5092790;28;20082;-86
2023/07/03 07:08:39;;;;;;;13.05;3.70;;;;;;;;;;5074226;28;20032;-88
2023/07/03 07:11:13;;;;;;;15.30;3.80;;;;;;;;;;5068543;28;20395;-87
2023/07/03 07:13:41;;;;;;;13.05;3.17;;;;;;;;;;5088543;28;20032;-87
2023/07/03 07:16:22;;;;;;;14.75;3.53;;;;;;;;;;5086755;28;20089;-81
2023/07/03 07:18:51;;;;;;;13.00;3.80;;;;;;;;;;5074291;28;20020;-87
2023/07/03 07:21:17;;;;;;;11.55;3.88;;;;;;;;;;5080795;28;20061;-87
2023/07/03 07:23:42;;;;;;;9.40;2.90;;;;;;;;;;5087368;28;20045;-86
2023/07/03 07:26:08;;;;;;;12.13;3.10;;;;;;;;;;5093079;28;20070;-86
2023/07/03 07:28:34;;;;;;;13.00;2.90;;;;;;;;;;5075794;28;20060;-88
2023/07/03 07:30:59;;;;;;;11.73;3.10;;;;;;;;;;5093722;28;20084;-89
2023/07/03 07:33:25;;;;;;;16.58;4.00;;;;;;;;;;5094425;28;20024;-88
2023/07/03 07:35:52;;;;;;;11.85;2.90;;;;;;;;;;5079600;28;20511;-88
2023/07/03 07:38:19;;;;;;;12.57;3.03;;;;;;;;;;5095242;28;20459;-88
2023/07/03 07:40:44;;;;;;;12.50;3.20;;;;;;;;;;5094947;28;20055;-87
2023/07/03 07:43:10;;;;;;;14.40;3.67;;;;;;;;;;5076501;28;20033;-88
2023/07/03 07:45:37;;;;;;;11.93;3.08;;;;;;;;;;5079310;28;20024;-86
2023/07/03 07:48:03;;;;;;;9.90;3.13;;;;;;;;;;5095110;28;20055;-88
2023/07/03 07:50:29;;;;;;;13.15;3.13;;;;;;;;;;5098297;28;20044;-86
2023/07/03 07:52:56;;;;;;;9.65;2.95;;;;;;;;;;5097729;28;20556;-82
2023/07/03 07:55:21;;;;;;;11.00;2.88;;;;;;;;;;5073925;28;20370;-89
2023/07/03 07:57:48;;;;;;;10.93;2.95;;;;;;;;;;5091600;28;20034;-88
2023/07/03 08:00:14;;;;;;;13.70;2.90;;;;;;;;;;5071924;28;20537;-89
2023/07/03 08:02:39;;;;;;;10.40;2.83;;;;;;;;;;5055730;28;20036;-89
2023/07/03 08:05:05;;;;;;;13.82;2.55;;;;;;;;;;5073299;28;20054;-87
2023/07/03 08:07:30;;;;;;;15.60;3.50;;;;;;;;;;5074986;28;20045;-86
2023/07/03 08:09:56;;;;;;;10.60;2.72;;;;;;;;;;5075916;28;20020;-86
2023/07/03 08:12:21;;;;;;;12.82;2.85;;;;;;;;;;5090592;28;20027;-87
2023/07/03 08:14:47;;;;;;;10.60;2.60;;;;;;;;;;5074982;28;20032;-82
2023/07/03 08:17:12;;;;;;;12.18;2.80;;;;;;;;;;5091353;28;20107;-87
2023/07/03 08:19:37;;;;;;;13.98;2.92;;;;;;;;;;5091323;28;20028;-88
2023/07/03 08:22:03;;;;;;;9.57;2.80;;;;;;;;;;5088300;28;20024;-86
2023/07/03 08:24:28;;;;;;;12.93;3.08;;;;;;;;;;5076056;28;20028;-87
2023/07/03 08:26:54;;;;;;;13.90;3.95;;;;;;;;;;5089600;28;20739;-86
2023/07/03 08:29:20;;;;;;;8.65;2.85;;;;;;;;;;5079062;28;20188;-87
2023/07/03 08:31:45;;;;;;;9.65;2.70;;;;;;;;;;5087913;28;20035;-87
2023/07/03 08:34:10;;;;;;;10.90;2.90;;;;;;;;;;5077536;28;20115;-89
2023/07/03 08:36:36;;;;;;;9.05;2.65;;;;;;;;;;5067468;28;20056;-85
2023/07/03 08:39:03;;;;;;;11.18;3.17;;;;;;;;;;5070588;28;20020;-86
2023/07/03 08:41:31;;;;;;;12.85;3.22;;;;;;;;;;5067000;28;20030;-88
2023/07/03 08:43:59;;;;;;;10.95;3.08;;;;;;;;;;5100257;28;20024;-89
2023/07/03 08:46:27;;;;;;;11.55;2.63;;;;;;;;;;5090421;28;20032;-87
2023/07/03 08:48:56;;;;;;;10.68;3.10;;;;;;;;;;5075728;28;20027;-89
2023/07/03 08:51:24;;;;;;;10.30;2.92;;;;;;;;;;5093329;28;20024;-89
2023/07/03 08:53:53;;;;;;;13.18;3.35;;;;;;;;;;5078628;28;20123;-88
2023/07/03 08:56:28;;;;;;;11.48;2.90;;;;;;;;;;5093424;28;20375;-88
2023/07/03 08:58:55;;;;;;;7.60;2.30;;;;;;;;;;5093534;28;20051;-87
2023/07/03 09:01:42;;;;;;;11.65;2.88;;;;;;;;;;5075848;28;20016;-89
2023/07/03 09:04:41;;;;;;;9.48;2.85;;;;;;;;;;5088363;28;20028;-86
2023/07/03 09:07:13;;;;;;;10.38;2.70;;;;;;;;;;5073730;28;20151;-88
2023/07/03 09:09:45;;;;;;;9.15;2.50;;;;;;;;;;5090688;28;20024;-87
2023/07/03 09:12:13;;;;;;;9.55;2.50;;;;;;;;;;5073386;28;20024;-90
2023/07/03 09:14:46;;;;;;;8.63;2.30;;;;;;;;;;5094632;28;20337;-88
2023/07/03 09:17:12;;;;;;;7.57;2.22;;;;;;;;;;5071311;28;20020;-89
2023/07/03 09:19:43;;;;;;;9.35;2.13;;;;;;;;;;5089481;28;20093;-87
2023/07/03 09:22:18;;;;;;;8.82;2.42;;;;;;;;;;5074332;28;20024;-88
2023/07/03 09:24:45;;;;;;;10.20;2.53;;;;;;;;;;5076270;28;20495;-88
2023/07/03 09:27:24;;;;;;;8.23;2.42;;;;;;;;;;5054089;28;20032;-83
2023/07/03 09:29:50;;;;;;;10.30;2.40;;;;;;;;;;5089627;28;20112;-88
2023/07/03 09:32:27;;;;;;;7.70;1.80;;;;;;;;;;5090676;28;20107;-90
2023/07/03 09:35:10;;;;;;;9.25;2.35;;;;;;;;;;5090165;28;20111;-84
2023/07/03 09:37:41;;;;;;;8.13;1.95;;;;;;;;;;5085593;28;20028;-87
2023/07/03 09:40:12;;;;;;;6.50;1.63;;;;;;;;;;5091506;28;20421;-86
2023/07/03 09:42:40;;;;;;;6.38;1.80;;;;;;;;;;5092239;28;20051;-88
2023/07/03 09:45:17;;;;;;;10.60;1.95;;;;;;;;;;5073656;28;20115;-85
2023/07/03 09:47:57;;;;;;;8.18;2.17;;;;;;;;;;5094792;28;20033;-87
2023/07/03 09:50:35;;;;;;;7.60;1.90;;;;;;;;;;5091141;28;20567;-86
2023/07/03 09:53:02;;;;;;;6.85;1.92;;;;;;;;;;5095433;28;20028;-89
2023/07/03 09:55:29;;;;;;;5.80;1.90;;;;;;;;;;5071888;28;20039;-89
2023/07/03 09:57:54;;;;;;;7.18;1.80;;;;;;;;;;5074593;28;20118;-82
2023/07/03 10:00:24;;;;;;;9.70;1.80;;;;;;;;;;5089309;28;20048;-87
2023/07/03 10:02:56;;;;;;;7.53;2.10;;;;;;;;;;5091524;28;20028;-88
2023/07/03 10:05:31;;;;;;;7.78;1.80;;;;;;;;;;5084624;28;20066;-88
2023/07/03 10:08:01;;;;;;;7.95;2.17;;;;;;;;;;5083264;28;20088;-89
2023/07/03 10:10:28;;;;;;;10.20;1.92;;;;;;;;;;5087856;28;20027;-88
2023/07/03 10:13:18;;;;;;;8.93;2.47;;;;;;;;;;5085743;28;20024;-88
2023/07/03 10:15:44;;;;;;;11.55;2.13;;;;;;;;;;5091440;28;20028;-88
2023/07/03 10:18:30;;;;;;;10.55;2.20;;;;;;;;;;5072688;28;20039;-89
2023/07/03 10:20:56;;;;;;;8.82;2.22;;;;;;;;;;5082421;28;20490;-86
2023/07/03 10:23:25;;;;;;;7.68;2.13;;;;;;;;;;5069129;28;20020;-88
2023/07/03 10:26:05;;;;;;;11.10;2.70;;;;;;;;;;5073214;28;20077;-88
2023/07/03 10:29:10;;;;;;;6.15;1.50;;;;;;;;;;5095450;28;20062;-87
2023/07/03 10:31:49;;;;;;;8.10;2.03;;;;;;;;;;5076739;28;20065;-88
2023/07/03 10:34:22;;;;;;;8.95;1.98;;;;;;;;;;5071001;28;20032;-87
2023/07/03 10:36:53;;;;;;;7.30;1.90;;;;;;;;;;5091588;28;20024;-89
2023/07/03 10:39:43;;;;;;;6.93;2.13;;;;;;;;;;5077332;28;20476;-90
2023/07/03 10:42:22;;;;;;;7.30;2.00;;;;;;;;;;5091671;28;20396;-89
2023/07/03 10:44:52;;;;;;;8.10;1.90;;;;;;;;;;5074462;28;20138;-78
2023/07/03 10:47:43;;;;;;;6.75;1.90;;;;;;;;;;5090990;28;20031;-89
2023/07/03 10:50:09;;;;;;;6.70;1.98;;;;;;;;;;5074035;28;20028;-89
2023/07/03 10:53:10;;;;;;;8.18;2.20;;;;;;;;;;5090854;28;20020;-87
2023/07/03 10:55:49;;;;;;;6.82;1.70;;;;;;;;;;5063606;28;20036;-85
2023/07/03 10:58:43;;;;;;;8.15;2.05;;;;;;;;;;5075505;28;20024;-88
2023/07/03 11:01:18;;;;;;;7.72;2.17;;;;;;;;;;5097446;28;20024;-90
2023/07/03 11:04:00;;;;;;;8.50;1.80;;;;;;;;;;5076837;28;20059;-79
2023/07/03 11:06:37;;;;;;;7.82;1.83;;;;;;;;;;5074020;28;20035;-90
2023/07/03 11:09:27;;;;;;;7.50;1.80;;;;;;;;;;5077048;28;20498;-91
2023/07/03 11:12:02;;;;;;;6.90;1.88;;;;;;;;;;5098816;28;20075;-89
2023/07/03 11:15:09;;;;;;;7.95;2.00;;;;;;;;;;5083424;28;20455;-89
2023/07/03 11:17:52;;;;;;;7.78;1.63;;;;;;;;;;5080883;28;20047;-90
2023/07/03 11:20:35;;;;;;;10.93;2.53;;;;;;;;;;5077580;28;20015;-90
2023/07/03 11:23:21;;;;;;;;;;;;;;;;;;5099081;28;20475;-90
2023/07/03 11:26:09;;;;;;;8.20;1.70;;;;;;;;;;5094840;28;19957;-90
2023/07/03 11:28:43;;;;;;;8.25;2.10;;;;;;;;;;5081619;28;20031;-84
2023/07/03 11:31:10;;;;;;;7.30;2.10;;;;;;;;;;5102214;28;20020;-91
2023/07/03 11:33:36;;;;;;;9.05;1.88;;;;;;;;;;5077824;28;20024;-88
2023/07/03 11:36:03;;;;;;;6.70;1.73;;;;;;;;;;5082279;28;20039;-89
2023/07/03 11:38:29;;;;;;;7.38;1.75;;;;;;;;;;5085215;28;20030;-91
2023/07/03 11:40:54;;;;;;;8.68;2.70;;;;;;;;;;5101186;28;20032;-89
2023/07/03 11:43:28;;;;;;;5.55;1.60;;;;;;;;;;5090515;28;20032;-89
2023/07/03 11:45:57;;;;;;;7.07;1.30;;;;;;;;;;5082777;28;20694;-87
2023/07/03 11:48:38;;;;;;;7.35;1.60;;;;;;;;;;5088526;28;20024;-83
2023/07/03 11:51:04;;;;;;;7.30;1.40;;;;;;;;;;5114841;28;20066;-85
2023/07/03 11:53:37;;;;;;;4.80;1.33;;;;;;;;;;5099424;28;20028;-88
2023/07/03 11:56:04;;;;;;;11.15;2.05;;;;;;;;;;5074282;28;20028;-91
2023/07/03 11:58:33;;;;;;;7.55;1.42;;;;;;;;;;5102154;28;20546;-91
2023/07/03 12:01:20;;;;;;;8.25;1.33;;;;;;;;;;5081200;28;20020;-90
2023/07/03 12:03:49;;;;;;;8.27;1.98;;;;;;;;;;5100621;28;20107;-82
2023/07/03 12:06:40;;;;;;;7.65;1.30;;;;;;;;;;5103340;28;20047;-90
2023/07/03 12:09:18;;;;;;;5.85;1.30;;;;;;;;;;5080945;28;20020;-85
2023/07/03 12:11:59;;;;;;;5.65;1.52;;;;;;;;;;5083833;28;20039;-89
2023/07/03 12:15:00;;;;;;;5.15;1.23;;;;;;;;;;5082067;28;20056;-88
2023/07/03 12:17:34;;;;;;;9.35;1.50;;;;;;;;;;5038961;28;20093;-87
2023/07/03 12:20:16;;;;;;;8.40;1.30;;;;;;;;;;5079450;28;20565;-89
2023/07/03 12:22:45;;;;;;;6.47;1.53;;;;;;;;;;5071017;28;20369;-86
2023/07/03 12:25:17;;;;;;;6.97;1.60;;;;;;;;;;5080162;28;20407;-86
2023/07/03 12:27:42;;;;;;;5.38;1.60;;;;;;;;;;5103727;28;20478;-84
2023/07/03 12:30:21;;;;;;;5.10;1.25;;;;;;;;;;5094040;28;20059;-88
2023/07/03 12:32:51;;;;;;;7.38;1.38;;;;;;;;;;5095965;28;20046;-88
2023/07/03 12:35:24;;;;;;;6.35;1.30;;;;;;;;;;5095046;28;20092;-90
2023/07/03 12:37:54;;;;;;;7.28;1.55;;;;;;;;;;5103101;28;20024;-91
2023/07/03 12:40:21;;;;;;;10.85;1.70;;;;;;;;;;5082600;28;20024;-85
2023/07/03 12:42:52;;;;;;;5.32;1.50;;;;;;;;;;5097713;28;20093;-82
2023/07/03 12:45:21;;;;;;;5.20;1.30;;;;;;;;;;5072785;28;20512;-90
2023/07/03 12:48:04;;;;;;;3.63;1.20;;;;;;;;;;5082522;28;20097;-90
2023/07/03 12:50:30;;;;;;;5.13;1.30;;;;;;;;;;5098165;28;20031;-90
2023/07/03 12:53:00;;;;;;;4.03;0.98;;;;;;;;;;5097506;28;20090;-90
2023/07/03 12:55:28;;;;;;;4.75;1.10;;;;;;;;;;5079861;28;20020;-90
2023/07/03 12:57:54;;;;;;;7.45;1.48;;;;;;;;;;5082229;28;20042;-85
2023/07/03 13:00:24;;;;;;;3.65;1.08;;;;;;;;;;5098698;28;20028;-86
2023/07/03 13:02:50;;;;;;;4.57;1.27;;;;;;;;;;5076865;28;20032;-88
2023/07/03 13:05:22;;;;;;;4.82;1.20;;;;;;;;;;5101020;28;20027;-91
2023/07/03 13:07:47;;;;;;;5.20;1.08;;;;;;;;;;5076365;28;20480;-87
2023/07/03 13:10:15;;;;;;;6.25;1.67;;;;;;;;;;5100550;28;20023;-90
2023/07/03 13:12:41;;;;;;;6.28;1.20;;;;;;;;;;5073382;28;20447;-90
2023/07/03 13:15:31;;;;;;;2.60;1.00;;;;;;;;;;5080555;28;20039;-91
2023/07/03 13:18:12;;;;;;;4.82;1.48;;;;;;;;;;5095552;28;20083;-87
2023/07/03 13:20:56;;;;;;;6.07;1.20;;;;;;;;;;5100488;28;20034;-90
2023/07/03 13:23:37;;;;;;;5.18;1.20;;;;;;;;;;5099034;28;20106;-88
2023/07/03 13:26:12;;;;;;;5.57;0.85;;;;;;;;;;5056336;28;20035;-90
2023/07/03 13:28:40;;;;;;;3.53;1.23;;;;;;;;;;5078665;28;20031;-90
2023/07/03 13:31:23;;;;;;;5.00;1.15;;;;;;;;;;5097753;28;20099;-91
2023/07/03 13:34:12;;;;;;;7.72;1.23;;;;;;;;;;5097898;28;20063;-83
2023/07/03 13:36:44;;;;;;;5.57;1.30;;;;;;;;;;5079179;28;20119;-87
2023/07/03 13:39:25;;;;;;;3.60;1.00;;;;;;;;;;5096961;28;20111;-85
2023/07/03 13:41:52;;;;;;;4.03;0.80;;;;;;;;;;5097891;28;20036;-90
2023/07/03 13:44:19;;;;;;;4.93;0.93;;;;;;;;;;5081182;28;20016;-87
2023/07/03 13:46:47;;;;;;;4.70;1.00;;;;;;;;;;5093795;28;20023;-91
2023/07/03 13:49:14;;;;;;;2.88;0.90;;;;;;;;;;5094269;28;20106;-88
2023/07/03 13:51:41;;;;;;;6.13;1.10;;;;;;;;;;5092772;28;20020;-89
2023/07/03 13:54:07;;;;;;;4.68;0.85;;;;;;;;;;5078218;28;20035;-87
2023/07/03 13:56:33;;;;;;;4.30;1.17;;;;;;;;;;5071543;28;20020;-90
2023/07/03 13:59:06;;;;;;;4.72;1.23;;;;;;;;;;5072380;28;20020;-88
2023/07/03 14:01:33;;;;;;;7.20;0.98;;;;;;;;;;5072035;28;20036;-80
2023/07/03 14:04:00;;;;;;;3.33;0.90;;;;;;;;;;5091521;28;20032;-87
2023/07/03 14:06:25;;;;;;;5.20;0.80;;;;;;;;;;5102715;28;20476;-87
2023/07/03 14:08:52;;;;;;;4.22;1.20;;;;;;;;;;5074358;28;20035;-88
2023/07/03 14:11:17;;;;;;;4.30;1.00;;;;;;;;;;5095361;28;20034;-88
2023/07/03 14:13:45;;;;;;;3.85;0.90;;;;;;;;;;5075627;28;20032;-90
2023/07/03 14:16:11;;;;;;;6.15;1.00;;;;;;;;;;5086713;28;20024;-89
2023/07/03 14:18:37;;;;;;;3.75;0.90;;;;;;;;;;5092470;28;20101;-89
2023/07/03 14:21:03;;;;;;;3.00;0.90;;;;;;;;;;5096549;28;20046;-85
2023/07/03 14:23:28;;;;;;;3.67;1.17;;;;;;;;;;5098565;28;20039;-89
2023/07/03 14:25:55;;;;;;;4.82;1.08;;;;;;;;;;5076530;28;20043;-91
2023/07/03 14:28:22;;;;;;;5.10;1.00;;;;;;;;;;5078143;28;20020;-84
2023/07/03 14:30:48;;;;;;;4.20;0.90;;;;;;;;;;5097507;28;20047;-92
2023/07/03 14:33:13;;;;;;;7.22;1.00;;;;;;;;;;5093277;28;20040;-91
2023/07/03 14:35:39;;;;;;;3.75;0.98;;;;;;;;;;5076579;28;20028;-91
2023/07/03 14:38:05;;;;;;;4.63;1.20;;;;;;;;;;5077428;28;20109;-91
2023/07/03 14:40:30;;;;;;;7.00;1.20;;;;;;;;;;5075384;28;20120;-84
2023/07/03 14:42:55;;;;;;;5.57;1.10;;;;;;;;;;5075141;28;20023;-79
2023/07/03 14:45:21;;;;;;;4.43;1.17;;;;;;;;;;5075441;28;20438;-90
2023/07/03 14:47:46;;;;;;;3.92;1.10;;;;;;;;;;5057564;28;20028;-87